sensor_id;sensor_type;location;lat;lon;timestamp;temperature;humidity
22680;DHT22;11507;44.858;10.374;2024-01-16T00:01:44;-1.70;99.90
22680;DHT22;11507;44.858;10.374;2024-01-16T00:04:10;-1.70;99.90
22680;DHT22;11507;44.858;10.374;2024-01-16T00:06:40;-1.80;99.90
22680;DHT22;11507;44.858;10.374;2024-01-16T00:09:06;-1.90;99.90
22680;DHT22;11507;44.858;10.374;2024-01-16T00:11:32;-2.00;99.90
22680;DHT22;11507;44.858;10.374;2024-01-16T00:13:58;-2.00;99.90
22680;DHT22;11507;44.858;10.374;2024-01-16T00:16:24;-2.00;99.90
22680;DHT22;11507;44.858;10.374;2024-01-16T00:18:50;-1.90;99.90
22680;DHT22;11507;44.858;10.374;2024-01-16T00:21:16;-1.90;99.90
22680;DHT22;11507;44.858;10.374;2024-01-16T00:23:42;-1.90;99.90
22680;DHT22;11507;44.858;10.374;2024-01-16T00:26:08;-1.80;99.90
22680;DHT22;11507;44.858;10.374;2024-01-16T00:28:34;-1.80;99.90
22680;DHT22;11507;44.858;10.374;2024-01-16T00:31:00;-1.80;99.90
22680;DHT22;11507;44.858;10.374;2024-01-16T00:33:26;-1.80;99.90
22680;DHT22;11507;44.858;10.374;2024-01-16T00:35:53;-1.80;99.90
22680;DHT22;11507;44.858;10.374;2024-01-16T00:38:19;-1.80;99.90
22680;DHT22;11507;44.858;10.374;2024-01-16T00:40:45;-1.80;99.90
22680;DHT22;11507;44.858;10.374;2024-01-16T00:43:11;-1.90;99.90
22680;DHT22;11507;44.858;10.374;2024-01-16T00:45:38;-2.00;99.90
22680;DHT22;11507;44.858;10.374;2024-01-16T00:48:04;-2.00;99.90
22680;DHT22;11507;44.858;10.374;2024-01-16T00:50:31;-2.10;99.90
22680;DHT22;11507;44.858;10.374;2024-01-16T00:52:57;-2.10;99.90
22680;DHT22;11507;44.858;10.374;2024-01-16T00:55:23;-2.20;99.90
22680;DHT22;11507;44.858;10.374;2024-01-16T00:57:49;-2.20;99.90
22680;DHT22;11507;44.858;10.374;2024-01-16T01:00:15;-2.30;99.90
22680;DHT22;11507;44.858;10.374;2024-01-16T01:02:41;-2.30;99.90
22680;DHT22;11507;44.858;10.374;2024-01-16T01:05:08;-2.40;99.90
22680;DHT22;11507;44.858;10.374;2024-01-16T01:07:34;-2.40;99.90
22680;DHT22;11507;44.858;10.374;2024-01-16T01:10:00;-2.50;99.90
22680;DHT22;11507;44.858;10.374;2024-01-16T01:12:26;-2.50;99.90
22680;DHT22;11507;44.858;10.374;2024-01-16T01:14:52;-2.50;99.90
22680;DHT22;11507;44.858;10.374;2024-01-16T01:17:18;-2.50;99.90
22680;DHT22;11507;44.858;10.374;2024-01-16T01:19:44;-2.50;99.90
22680;DHT22;11507;44.858;10.374;2024-01-16T01:22:11;-2.60;99.90
22680;DHT22;11507;44.858;10.374;2024-01-16T01:24:38;-2.60;99.90
22680;DHT22;11507;44.858;10.374;2024-01-16T01:27:04;-2.70;99.90
22680;DHT22;11507;44.858;10.374;2024-01-16T01:29:29;-2.70;99.90
22680;DHT22;11507;44.858;10.374;2024-01-16T01:31:55;-2.60;99.90
22680;DHT22;11507;44.858;10.374;2024-01-16T01:34:21;-2.70;99.90
22680;DHT22;11507;44.858;10.374;2024-01-16T01:36:47;-2.70;99.90
22680;DHT22;11507;44.858;10.374;2024-01-16T01:39:13;-2.70;99.90
22680;DHT22;11507;44.858;10.374;2024-01-16T01:41:39;-2.70;99.90
22680;DHT22;11507;44.858;10.374;2024-01-16T01:44:05;-2.70;99.90
22680;DHT22;11507;44.858;10.374;2024-01-16T01:46:32;-2.70;99.90
22680;DHT22;11507;44.858;10.374;2024-01-16T01:48:59;-2.70;99.90
22680;DHT22;11507;44.858;10.374;2024-01-16T01:51:25;-2.70;99.90
22680;DHT22;11507;44.858;10.374;2024-01-16T01:53:51;-2.70;99.90
22680;DHT22;11507;44.858;10.374;2024-01-16T01:56:18;-2.70;99.90
22680;DHT22;11507;44.858;10.374;2024-01-16T01:58:46;-2.70;99.90
22680;DHT22;11507;44.858;10.374;2024-01-16T02:01:12;-2.70;99.90
22680;DHT22;11507;44.858;10.374;2024-01-16T02:03:40;-2.70;99.90
22680;DHT22;11507;44.858;10.374;2024-01-16T02:06:07;-2.60;99.90
22680;DHT22;11507;44.858;10.374;2024-01-16T02:08:33;-2.70;99.90
22680;DHT22;11507;44.858;10.374;2024-01-16T02:10:59;-2.60;99.90
22680;DHT22;11507;44.858;10.374;2024-01-16T02:13:24;-2.60;99.90
22680;DHT22;11507;44.858;10.374;2024-01-16T02:15:51;-2.60;99.90
22680;DHT22;11507;44.858;10.374;2024-01-16T02:18:17;-2.70;99.90
22680;DHT22;11507;44.858;10.374;2024-01-16T02:20:43;-2.60;99.90
22680;DHT22;11507;44.858;10.374;2024-01-16T02:23:09;-2.70;99.90
22680;DHT22;11507;44.858;10.374;2024-01-16T02:25:35;-2.70;99.90
22680;DHT22;11507;44.858;10.374;2024-01-16T02:28:01;-2.60;99.90
22680;DHT22;11507;44.858;10.374;2024-01-16T02:30:28;-2.50;99.90
22680;DHT22;11507;44.858;10.374;2024-01-16T02:32:54;-2.50;99.90
22680;DHT22;11507;44.858;10.374;2024-01-16T02:35:20;-2.50;99.90
22680;DHT22;11507;44.858;10.374;2024-01-16T02:37:46;-2.50;99.90
22680;DHT22;11507;44.858;10.374;2024-01-16T02:40:12;-2.50;99.90
22680;DHT22;11507;44.858;10.374;2024-01-16T02:42:39;-2.60;99.90
22680;DHT22;11507;44.858;10.374;2024-01-16T02:45:05;-2.60;99.90
22680;DHT22;11507;44.858;10.374;2024-01-16T02:47:31;-2.70;99.90
22680;DHT22;11507;44.858;10.374;2024-01-16T02:49:57;-2.70;99.90
22680;DHT22;11507;44.858;10.374;2024-01-16T02:52:23;-2.80;99.90
22680;DHT22;11507;44.858;10.374;2024-01-16T02:54:49;-2.80;99.90
22680;DHT22;11507;44.858;10.374;2024-01-16T02:57:15;-2.80;99.90
22680;DHT22;11507;44.858;10.374;2024-01-16T02:59:44;-2.90;99.90
22680;DHT22;11507;44.858;10.374;2024-01-16T03:02:10;-2.90;99.90
22680;DHT22;11507;44.858;10.374;2024-01-16T03:04:37;-2.90;99.90
22680;DHT22;11507;44.858;10.374;2024-01-16T03:07:03;-2.90;99.90
22680;DHT22;11507;44.858;10.374;2024-01-16T03:09:29;-3.00;99.90
22680;DHT22;11507;44.858;10.374;2024-01-16T03:11:55;-3.00;99.90
22680;DHT22;11507;44.858;10.374;2024-01-16T03:14:21;-3.00;99.90
22680;DHT22;11507;44.858;10.374;2024-01-16T03:16:47;-3.00;99.90
22680;DHT22;11507;44.858;10.374;2024-01-16T03:19:13;-3.00;99.90
22680;DHT22;11507;44.858;10.374;2024-01-16T03:21:38;-3.00;99.90
22680;DHT22;11507;44.858;10.374;2024-01-16T03:24:05;-3.00;99.90
22680;DHT22;11507;44.858;10.374;2024-01-16T03:26:36;-3.00;99.90
22680;DHT22;11507;44.858;10.374;2024-01-16T03:32:13;-3.00;99.90
22680;DHT22;11507;44.858;10.374;2024-01-16T03:34:39;-3.00;99.90
22680;DHT22;11507;44.858;10.374;2024-01-16T03:37:06;-3.00;99.90
22680;DHT22;11507;44.858;10.374;2024-01-16T03:39:31;-3.00;99.90
22680;DHT22;11507;44.858;10.374;2024-01-16T03:41:57;-3.00;99.90
22680;DHT22;11507;44.858;10.374;2024-01-16T03:44:23;-3.10;99.90
22680;DHT22;11507;44.858;10.374;2024-01-16T03:46:49;-3.10;99.90
22680;DHT22;11507;44.858;10.374;2024-01-16T03:49:15;-3.10;99.90
22680;DHT22;11507;44.858;10.374;2024-01-16T03:51:41;-3.10;99.90
22680;DHT22;11507;44.858;10.374;2024-01-16T03:54:12;-3.10;99.90
22680;DHT22;11507;44.858;10.374;2024-01-16T03:56:42;-3.10;99.90
22680;DHT22;11507;44.858;10.374;2024-01-16T03:59:08;-3.00;99.90
22680;DHT22;11507;44.858;10.374;2024-01-16T04:01:34;-3.00;99.90
22680;DHT22;11507;44.858;10.374;2024-01-16T04:04:02;-3.00;99.90
22680;DHT22;11507;44.858;10.374;2024-01-16T04:06:28;-3.00;99.90
22680;DHT22;11507;44.858;10.374;2024-01-16T04:08:55;-3.00;99.90
22680;DHT22;11507;44.858;10.374;2024-01-16T04:11:21;-3.00;99.90
22680;DHT22;11507;44.858;10.374;2024-01-16T04:13:47;-3.00;99.90
22680;DHT22;11507;44.858;10.374;2024-01-16T04:16:13;-3.00;99.90
22680;DHT22;11507;44.858;10.374;2024-01-16T04:18:39;-3.00;99.90
22680;DHT22;11507;44.858;10.374;2024-01-16T04:21:06;-3.00;99.90
22680;DHT22;11507;44.858;10.374;2024-01-16T04:23:32;-3.00;99.90
22680;DHT22;11507;44.858;10.374;2024-01-16T04:25:58;-3.00;99.90
22680;DHT22;11507;44.858;10.374;2024-01-16T04:28:24;-3.00;99.90
22680;DHT22;11507;44.858;10.374;2024-01-16T04:30:50;-2.90;99.90
22680;DHT22;11507;44.858;10.374;2024-01-16T04:33:16;-2.90;99.90
22680;DHT22;11507;44.858;10.374;2024-01-16T04:35:42;-2.90;99.90
22680;DHT22;11507;44.858;10.374;2024-01-16T04:38:08;-2.90;99.90
22680;DHT22;11507;44.858;10.374;2024-01-16T04:40:34;-2.90;99.90
22680;DHT22;11507;44.858;10.374;2024-01-16T04:43:00;-2.80;99.90
22680;DHT22;11507;44.858;10.374;2024-01-16T04:45:26;-2.80;99.90
22680;DHT22;11507;44.858;10.374;2024-01-16T04:47:52;-2.80;99.90
22680;DHT22;11507;44.858;10.374;2024-01-16T04:50:18;-2.80;99.90
22680;DHT22;11507;44.858;10.374;2024-01-16T04:52:44;-2.80;99.90
22680;DHT22;11507;44.858;10.374;2024-01-16T04:55:10;-2.80;99.90
22680;DHT22;11507;44.858;10.374;2024-01-16T04:57:36;-2.80;99.90
22680;DHT22;11507;44.858;10.374;2024-01-16T05:00:03;-2.70;99.90
22680;DHT22;11507;44.858;10.374;2024-01-16T05:02:32;-2.70;99.90
22680;DHT22;11507;44.858;10.374;2024-01-16T05:04:59;-2.70;99.90
22680;DHT22;11507;44.858;10.374;2024-01-16T05:07:25;-2.80;99.90
22680;DHT22;11507;44.858;10.374;2024-01-16T05:09:52;-2.80;99.90
22680;DHT22;11507;44.858;10.374;2024-01-16T05:12:19;-2.80;99.90
22680;DHT22;11507;44.858;10.374;2024-01-16T05:14:46;-2.80;99.90
22680;DHT22;11507;44.858;10.374;2024-01-16T05:17:12;-2.90;99.90
22680;DHT22;11507;44.858;10.374;2024-01-16T05:19:39;-2.80;99.90
22680;DHT22;11507;44.858;10.374;2024-01-16T05:22:05;-2.90;99.90
22680;DHT22;11507;44.858;10.374;2024-01-16T05:24:31;-3.00;99.90
22680;DHT22;11507;44.858;10.374;2024-01-16T05:26:57;-3.00;99.90
22680;DHT22;11507;44.858;10.374;2024-01-16T05:29:23;-3.10;99.90
22680;DHT22;11507;44.858;10.374;2024-01-16T05:31:49;-3.20;99.90
22680;DHT22;11507;44.858;10.374;2024-01-16T05:34:15;-3.30;99.90
22680;DHT22;11507;44.858;10.374;2024-01-16T05:36:41;-3.30;99.90
22680;DHT22;11507;44.858;10.374;2024-01-16T05:39:07;-3.40;99.90
22680;DHT22;11507;44.858;10.374;2024-01-16T05:41:34;-3.40;99.90
22680;DHT22;11507;44.858;10.374;2024-01-16T05:44:00;-3.50;99.90
22680;DHT22;11507;44.858;10.374;2024-01-16T05:46:30;-3.50;99.90
22680;DHT22;11507;44.858;10.374;2024-01-16T05:48:56;-3.50;99.90
22680;DHT22;11507;44.858;10.374;2024-01-16T05:51:22;-3.50;99.90
22680;DHT22;11507;44.858;10.374;2024-01-16T05:53:48;-3.60;99.90
22680;DHT22;11507;44.858;10.374;2024-01-16T05:56:14;-3.60;99.90
22680;DHT22;11507;44.858;10.374;2024-01-16T05:58:40;-3.60;99.90
22680;DHT22;11507;44.858;10.374;2024-01-16T06:01:06;-3.60;99.90
22680;DHT22;11507;44.858;10.374;2024-01-16T06:03:32;-3.60;99.90
22680;DHT22;11507;44.858;10.374;2024-01-16T06:05:58;-3.70;99.90
22680;DHT22;11507;44.858;10.374;2024-01-16T06:08:24;-3.80;99.90
22680;DHT22;11507;44.858;10.374;2024-01-16T06:10:50;-3.80;99.90
22680;DHT22;11507;44.858;10.374;2024-01-16T06:13:19;-3.90;99.90
22680;DHT22;11507;44.858;10.374;2024-01-16T06:15:45;-3.90;99.90
22680;DHT22;11507;44.858;10.374;2024-01-16T06:18:11;-3.90;99.90
22680;DHT22;11507;44.858;10.374;2024-01-16T06:20:37;-4.00;99.90
22680;DHT22;11507;44.858;10.374;2024-01-16T06:23:03;-4.00;99.90
22680;DHT22;11507;44.858;10.374;2024-01-16T06:25:29;-4.00;99.90
22680;DHT22;11507;44.858;10.374;2024-01-16T06:27:55;-4.10;99.90
22680;DHT22;11507;44.858;10.374;2024-01-16T06:30:21;-4.10;99.90
22680;DHT22;11507;44.858;10.374;2024-01-16T06:32:47;-4.10;99.90
22680;DHT22;11507;44.858;10.374;2024-01-16T06:35:15;-4.10;99.90
22680;DHT22;11507;44.858;10.374;2024-01-16T06:37:41;-4.20;99.90
22680;DHT22;11507;44.858;10.374;2024-01-16T06:40:07;-4.20;99.90
22680;DHT22;11507;44.858;10.374;2024-01-16T06:42:33;-4.20;99.90
22680;DHT22;11507;44.858;10.374;2024-01-16T06:44:59;-4.20;99.90
22680;DHT22;11507;44.858;10.374;2024-01-16T06:47:25;-4.20;99.90
22680;DHT22;11507;44.858;10.374;2024-01-16T06:49:51;-4.20;99.90
22680;DHT22;11507;44.858;10.374;2024-01-16T06:52:17;-4.20;99.90
22680;DHT22;11507;44.858;10.374;2024-01-16T06:54:43;-4.20;99.90
22680;DHT22;11507;44.858;10.374;2024-01-16T06:57:09;-4.20;99.90
22680;DHT22;11507;44.858;10.374;2024-01-16T06:59:35;-4.20;99.90
22680;DHT22;11507;44.858;10.374;2024-01-16T07:02:00;-4.20;99.90
22680;DHT22;11507;44.858;10.374;2024-01-16T07:04:26;-4.30;99.90
22680;DHT22;11507;44.858;10.374;2024-01-16T07:06:52;-4.30;99.90
22680;DHT22;11507;44.858;10.374;2024-01-16T07:09:18;-4.20;99.90
22680;DHT22;11507;44.858;10.374;2024-01-16T07:11:47;-4.20;99.90
22680;DHT22;11507;44.858;10.374;2024-01-16T07:14:13;-4.20;99.90
22680;DHT22;11507;44.858;10.374;2024-01-16T07:16:39;-4.20;99.90
22680;DHT22;11507;44.858;10.374;2024-01-16T07:19:05;-4.20;99.90
22680;DHT22;11507;44.858;10.374;2024-01-16T07:21:31;-4.10;99.90
22680;DHT22;11507;44.858;10.374;2024-01-16T07:23:57;-4.10;99.90
22680;DHT22;11507;44.858;10.374;2024-01-16T07:26:23;-4.10;99.90
22680;DHT22;11507;44.858;10.374;2024-01-16T07:28:49;-4.00;99.90
22680;DHT22;11507;44.858;10.374;2024-01-16T07:31:15;-4.00;99.90
22680;DHT22;11507;44.858;10.374;2024-01-16T07:33:44;-4.00;99.90
22680;DHT22;11507;44.858;10.374;2024-01-16T07:36:11;-3.90;99.90
22680;DHT22;11507;44.858;10.374;2024-01-16T07:38:37;-3.90;99.90
22680;DHT22;11507;44.858;10.374;2024-01-16T07:41:03;-3.80;99.90
22680;DHT22;11507;44.858;10.374;2024-01-16T07:43:29;-3.80;99.90
22680;DHT22;11507;44.858;10.374;2024-01-16T07:45:55;-3.70;99.90
22680;DHT22;11507;44.858;10.374;2024-01-16T07:48:21;-3.60;99.90
22680;DHT22;11507;44.858;10.374;2024-01-16T07:50:48;-3.50;99.90
22680;DHT22;11507;44.858;10.374;2024-01-16T07:53:14;-3.50;99.90
22680;DHT22;11507;44.858;10.374;2024-01-16T07:55:43;-3.40;99.90
22680;DHT22;11507;44.858;10.374;2024-01-16T07:58:13;-3.30;99.90
22680;DHT22;11507;44.858;10.374;2024-01-16T08:00:39;-3.20;99.90
22680;DHT22;11507;44.858;10.374;2024-01-16T08:03:07;-3.10;99.90
22680;DHT22;11507;44.858;10.374;2024-01-16T08:05:34;-2.90;99.90
22680;DHT22;11507;44.858;10.374;2024-01-16T08:08:00;-2.80;99.90
22680;DHT22;11507;44.858;10.374;2024-01-16T08:10:25;-2.70;99.90
22680;DHT22;11507;44.858;10.374;2024-01-16T08:12:51;-2.50;99.90
22680;DHT22;11507;44.858;10.374;2024-01-16T08:15:17;-2.50;99.90
22680;DHT22;11507;44.858;10.374;2024-01-16T08:17:43;-2.30;99.90
22680;DHT22;11507;44.858;10.374;2024-01-16T08:20:10;-2.20;99.90
22680;DHT22;11507;44.858;10.374;2024-01-16T08:22:36;-2.10;99.90
22680;DHT22;11507;44.858;10.374;2024-01-16T08:25:03;-1.90;99.90
22680;DHT22;11507;44.858;10.374;2024-01-16T08:27:30;-1.80;99.90
22680;DHT22;11507;44.858;10.374;2024-01-16T08:29:57;-1.60;99.90
22680;DHT22;11507;44.858;10.374;2024-01-16T08:32:23;-1.50;99.90
22680;DHT22;11507;44.858;10.374;2024-01-16T08:34:48;-1.30;99.90
22680;DHT22;11507;44.858;10.374;2024-01-16T08:37:14;-1.20;99.90
22680;DHT22;11507;44.858;10.374;2024-01-16T08:39:40;-1.10;99.90
22680;DHT22;11507;44.858;10.374;2024-01-16T08:42:06;-0.90;99.90
22680;DHT22;11507;44.858;10.374;2024-01-16T08:44:32;-0.70;99.90
22680;DHT22;11507;44.858;10.374;2024-01-16T08:46:58;-0.60;99.90
22680;DHT22;11507;44.858;10.374;2024-01-16T08:49:26;-0.50;99.90
22680;DHT22;11507;44.858;10.374;2024-01-16T08:51:52;-0.30;99.90
22680;DHT22;11507;44.858;10.374;2024-01-16T08:54:18;-0.20;99.90
22680;DHT22;11507;44.858;10.374;2024-01-16T08:56:44;0.10;99.90
22680;DHT22;11507;44.858;10.374;2024-01-16T08:59:10;0.20;99.90
22680;DHT22;11507;44.858;10.374;2024-01-16T09:01:36;0.50;99.90
22680;DHT22;11507;44.858;10.374;2024-01-16T09:04:02;0.70;99.90
22680;DHT22;11507;44.858;10.374;2024-01-16T09:06:28;0.90;99.90
22680;DHT22;11507;44.858;10.374;2024-01-16T09:08:54;1.10;99.90
22680;DHT22;11507;44.858;10.374;2024-01-16T09:11:20;1.30;99.90
22680;DHT22;11507;44.858;10.374;2024-01-16T09:13:47;1.70;99.90
22680;DHT22;11507;44.858;10.374;2024-01-16T09:16:13;1.90;99.90
22680;DHT22;11507;44.858;10.374;2024-01-16T09:18:40;2.10;99.90
22680;DHT22;11507;44.858;10.374;2024-01-16T09:21:06;2.20;99.90
22680;DHT22;11507;44.858;10.374;2024-01-16T09:23:32;2.20;99.90
22680;DHT22;11507;44.858;10.374;2024-01-16T09:25:58;2.20;99.90
22680;DHT22;11507;44.858;10.374;2024-01-16T09:28:24;2.20;99.90
22680;DHT22;11507;44.858;10.374;2024-01-16T09:30:50;2.20;99.90
22680;DHT22;11507;44.858;10.374;2024-01-16T09:33:16;2.20;99.90
22680;DHT22;11507;44.858;10.374;2024-01-16T09:35:42;2.40;99.90
22680;DHT22;11507;44.858;10.374;2024-01-16T09:38:08;2.50;99.90
22680;DHT22;11507;44.858;10.374;2024-01-16T09:40:34;2.80;99.90
22680;DHT22;11507;44.858;10.374;2024-01-16T09:43:01;3.20;99.90
22680;DHT22;11507;44.858;10.374;2024-01-16T09:45:27;3.60;99.90
22680;DHT22;11507;44.858;10.374;2024-01-16T09:47:55;3.90;99.90
22680;DHT22;11507;44.858;10.374;2024-01-16T09:50:22;4.20;99.90
22680;DHT22;11507;44.858;10.374;2024-01-16T09:52:48;4.40;99.90
22680;DHT22;11507;44.858;10.374;2024-01-16T09:55:15;4.60;99.90
22680;DHT22;11507;44.858;10.374;2024-01-16T09:57:42;4.70;99.90
22680;DHT22;11507;44.858;10.374;2024-01-16T10:00:11;5.00;99.90
22680;DHT22;11507;44.858;10.374;2024-01-16T10:02:40;5.20;99.90
22680;DHT22;11507;44.858;10.374;2024-01-16T10:05:10;5.40;99.90
22680;DHT22;11507;44.858;10.374;2024-01-16T10:07:39;5.50;99.90
22680;DHT22;11507;44.858;10.374;2024-01-16T10:10:06;5.70;99.90
22680;DHT22;11507;44.858;10.374;2024-01-16T10:12:32;6.00;99.90
22680;DHT22;11507;44.858;10.374;2024-01-16T10:14:59;6.50;99.90
22680;DHT22;11507;44.858;10.374;2024-01-16T10:20:03;7.70;99.90
22680;DHT22;11507;44.858;10.374;2024-01-16T10:22:32;8.50;99.90
22680;DHT22;11507;44.858;10.374;2024-01-16T10:25:05;9.40;99.90
22680;DHT22;11507;44.858;10.374;2024-01-16T10:27:32;10.20;99.90
22680;DHT22;11507;44.858;10.374;2024-01-16T10:29:58;11.10;99.90
22680;DHT22;11507;44.858;10.374;2024-01-16T10:32:28;11.90;99.90
22680;DHT22;11507;44.858;10.374;2024-01-16T10:37:31;12.90;99.90
22680;DHT22;11507;44.858;10.374;2024-01-16T10:39:57;13.40;99.90
22680;DHT22;11507;44.858;10.374;2024-01-16T10:42:23;14.20;99.90
22680;DHT22;11507;44.858;10.374;2024-01-16T10:44:53;14.80;99.90
22680;DHT22;11507;44.858;10.374;2024-01-16T10:47:21;15.10;99.90
22680;DHT22;11507;44.858;10.374;2024-01-16T10:49:47;15.20;99.90
22680;DHT22;11507;44.858;10.374;2024-01-16T10:52:13;15.40;99.90
22680;DHT22;11507;44.858;10.374;2024-01-16T10:54:41;15.80;99.90
22680;DHT22;11507;44.858;10.374;2024-01-16T10:57:07;16.50;99.90
22680;DHT22;11507;44.858;10.374;2024-01-16T10:59:40;17.50;99.90
22680;DHT22;11507;44.858;10.374;2024-01-16T11:02:08;18.30;98.00
22680;DHT22;11507;44.858;10.374;2024-01-16T11:04:36;18.70;95.60
22680;DHT22;11507;44.858;10.374;2024-01-16T11:07:03;19.10;94.10
22680;DHT22;11507;44.858;10.374;2024-01-16T11:09:31;19.30;92.60
22680;DHT22;11507;44.858;10.374;2024-01-16T11:11:58;19.40;91.50
22680;DHT22;11507;44.858;10.374;2024-01-16T11:14:24;19.40;90.90
22680;DHT22;11507;44.858;10.374;2024-01-16T11:16:51;19.50;91.00
22680;DHT22;11507;44.858;10.374;2024-01-16T11:19:18;19.80;90.60
22680;DHT22;11507;44.858;10.374;2024-01-16T11:21:44;20.00;89.50
22680;DHT22;11507;44.858;10.374;2024-01-16T11:24:11;20.30;86.70
22680;DHT22;11507;44.858;10.374;2024-01-16T11:26:40;20.30;87.40
22680;DHT22;11507;44.858;10.374;2024-01-16T11:31:51;20.40;86.20
22680;DHT22;11507;44.858;10.374;2024-01-16T11:34:46;20.70;83.70
22680;DHT22;11507;44.858;10.374;2024-01-16T11:37:04;21.00;81.20
22680;DHT22;11507;44.858;10.374;2024-01-16T11:39:32;20.90;81.40
22680;DHT22;11507;44.858;10.374;2024-01-16T11:41:58;21.20;80.00
22680;DHT22;11507;44.858;10.374;2024-01-16T11:47:10;21.20;77.50
22680;DHT22;11507;44.858;10.374;2024-01-16T11:49:40;20.90;76.40
22680;DHT22;11507;44.858;10.374;2024-01-16T11:52:06;20.40;74.90
22680;DHT22;11507;44.858;10.374;2024-01-16T11:54:33;19.80;78.00
22680;DHT22;11507;44.858;10.374;2024-01-16T12:01:57;20.10;82.50
22680;DHT22;11507;44.858;10.374;2024-01-16T12:04:24;20.70;79.40
22680;DHT22;11507;44.858;10.374;2024-01-16T12:06:59;21.30;77.80
22680;DHT22;11507;44.858;10.374;2024-01-16T12:09:26;21.70;75.00
22680;DHT22;11507;44.858;10.374;2024-01-16T12:11:59;22.20;73.60
22680;DHT22;11507;44.858;10.374;2024-01-16T12:14:26;22.50;67.00
22680;DHT22;11507;44.858;10.374;2024-01-16T12:16:53;23.00;69.40
22680;DHT22;11507;44.858;10.374;2024-01-16T12:19:19;23.50;67.60
22680;DHT22;11507;44.858;10.374;2024-01-16T12:21:45;24.10;63.80
22680;DHT22;11507;44.858;10.374;2024-01-16T12:24:11;24.30;62.00
22680;DHT22;11507;44.858;10.374;2024-01-16T12:26:37;24.40;60.60
22680;DHT22;11507;44.858;10.374;2024-01-16T12:29:04;25.00;60.70
22680;DHT22;11507;44.858;10.374;2024-01-16T12:31:31;25.10;57.50
22680;DHT22;11507;44.858;10.374;2024-01-16T12:34:09;25.00;56.30
22680;DHT22;11507;44.858;10.374;2024-01-16T12:36:36;24.80;54.50
22680;DHT22;11507;44.858;10.374;2024-01-16T12:39:03;23.90;55.00
22680;DHT22;11507;44.858;10.374;2024-01-16T12:41:32;23.10;56.20
22680;DHT22;11507;44.858;10.374;2024-01-16T12:44:00;22.10;57.50
22680;DHT22;11507;44.858;10.374;2024-01-16T12:46:26;21.40;61.40
22680;DHT22;11507;44.858;10.374;2024-01-16T12:48:52;21.60;63.70
22680;DHT22;11507;44.858;10.374;2024-01-16T12:51:20;22.30;61.50
22680;DHT22;11507;44.858;10.374;2024-01-16T12:53:50;22.70;60.60
22680;DHT22;11507;44.858;10.374;2024-01-16T12:56:20;23.20;58.50
22680;DHT22;11507;44.858;10.374;2024-01-16T12:58:49;23.60;57.10
22680;DHT22;11507;44.858;10.374;2024-01-16T13:01:25;24.10;54.30
22680;DHT22;11507;44.858;10.374;2024-01-16T13:03:52;23.70;54.00
22680;DHT22;11507;44.858;10.374;2024-01-16T13:06:18;23.90;53.80
22680;DHT22;11507;44.858;10.374;2024-01-16T13:09:03;23.80;52.60
22680;DHT22;11507;44.858;10.374;2024-01-16T13:11:31;23.50;54.70
22680;DHT22;11507;44.858;10.374;2024-01-16T13:14:01;23.20;52.60
22680;DHT22;11507;44.858;10.374;2024-01-16T13:16:30;22.50;53.50
22680;DHT22;11507;44.858;10.374;2024-01-16T13:19:02;21.90;56.30
22680;DHT22;11507;44.858;10.374;2024-01-16T13:21:30;21.60;57.20
22680;DHT22;11507;44.858;10.374;2024-01-16T13:23:56;21.50;55.30
22680;DHT22;11507;44.858;10.374;2024-01-16T13:26:22;20.90;56.20
22680;DHT22;11507;44.858;10.374;2024-01-16T13:28:48;20.60;57.40
22680;DHT22;11507;44.858;10.374;2024-01-16T13:31:14;20.70;60.00
22680;DHT22;11507;44.858;10.374;2024-01-16T13:33:41;21.20;59.80
22680;DHT22;11507;44.858;10.374;2024-01-16T13:36:08;21.60;58.40
22680;DHT22;11507;44.858;10.374;2024-01-16T13:38:35;22.00;57.90
22680;DHT22;11507;44.858;10.374;2024-01-16T13:41:00;22.40;57.30
22680;DHT22;11507;44.858;10.374;2024-01-16T13:43:27;22.70;56.60
22680;DHT22;11507;44.858;10.374;2024-01-16T13:45:54;22.90;55.00
22680;DHT22;11507;44.858;10.374;2024-01-16T13:48:20;23.00;55.30
22680;DHT22;11507;44.858;10.374;2024-01-16T13:50:46;23.00;55.90
22680;DHT22;11507;44.858;10.374;2024-01-16T13:53:12;22.90;55.50
22680;DHT22;11507;44.858;10.374;2024-01-16T13:55:42;23.00;54.20
22680;DHT22;11507;44.858;10.374;2024-01-16T13:58:08;22.90;54.60
22680;DHT22;11507;44.858;10.374;2024-01-16T14:00:34;22.50;56.10
22680;DHT22;11507;44.858;10.374;2024-01-16T14:03:01;22.80;55.90
22680;DHT22;11507;44.858;10.374;2024-01-16T14:05:28;22.50;56.20
22680;DHT22;11507;44.858;10.374;2024-01-16T14:07:54;22.30;56.40
22680;DHT22;11507;44.858;10.374;2024-01-16T14:10:21;21.60;56.10
22680;DHT22;11507;44.858;10.374;2024-01-16T14:12:48;20.70;57.60
22680;DHT22;11507;44.858;10.374;2024-01-16T14:15:15;19.40;60.00
22680;DHT22;11507;44.858;10.374;2024-01-16T14:17:42;18.70;62.80
22680;DHT22;11507;44.858;10.374;2024-01-16T14:20:10;17.80;64.70
22680;DHT22;11507;44.858;10.374;2024-01-16T14:22:37;17.10;66.50
22680;DHT22;11507;44.858;10.374;2024-01-16T14:25:09;16.40;69.50
22680;DHT22;11507;44.858;10.374;2024-01-16T14:27:37;15.70;71.70
22680;DHT22;11507;44.858;10.374;2024-01-16T14:30:05;14.90;75.90
22680;DHT22;11507;44.858;10.374;2024-01-16T14:32:33;14.20;78.60
22680;DHT22;11507;44.858;10.374;2024-01-16T14:34:58;13.60;81.10
22680;DHT22;11507;44.858;10.374;2024-01-16T14:37:24;13.10;84.20
22680;DHT22;11507;44.858;10.374;2024-01-16T14:39:51;12.60;86.10
22680;DHT22;11507;44.858;10.374;2024-01-16T14:42:17;12.20;88.40
22680;DHT22;11507;44.858;10.374;2024-01-16T14:44:43;11.80;90.50
22680;DHT22;11507;44.858;10.374;2024-01-16T14:47:09;11.50;91.70
22680;DHT22;11507;44.858;10.374;2024-01-16T14:49:35;11.30;94.80
22680;DHT22;11507;44.858;10.374;2024-01-16T14:52:02;11.00;97.10
22680;DHT22;11507;44.858;10.374;2024-01-16T14:54:28;10.70;99.90
22680;DHT22;11507;44.858;10.374;2024-01-16T14:56:54;10.50;99.90
22680;DHT22;11507;44.858;10.374;2024-01-16T14:59:20;10.20;99.90
22680;DHT22;11507;44.858;10.374;2024-01-16T15:01:46;9.90;99.90
22680;DHT22;11507;44.858;10.374;2024-01-16T15:04:12;9.70;99.90
22680;DHT22;11507;44.858;10.374;2024-01-16T15:06:38;9.30;99.90
22680;DHT22;11507;44.858;10.374;2024-01-16T15:09:04;8.70;99.90
22680;DHT22;11507;44.858;10.374;2024-01-16T15:11:30;8.30;99.90
22680;DHT22;11507;44.858;10.374;2024-01-16T15:13:56;7.90;99.90
22680;DHT22;11507;44.858;10.374;2024-01-16T15:16:23;7.50;99.90
22680;DHT22;11507;44.858;10.374;2024-01-16T15:18:49;7.10;99.90
22680;DHT22;11507;44.858;10.374;2024-01-16T15:21:15;6.90;99.90
22680;DHT22;11507;44.858;10.374;2024-01-16T15:23:41;6.60;99.90
22680;DHT22;11507;44.858;10.374;2024-01-16T15:26:07;6.50;99.90
22680;DHT22;11507;44.858;10.374;2024-01-16T15:28:33;6.40;99.90
22680;DHT22;11507;44.858;10.374;2024-01-16T15:30:59;6.30;99.90
22680;DHT22;11507;44.858;10.374;2024-01-16T15:33:32;6.30;99.90